Aviation Digital Data Service (ADDS)

Output produced by METARs form (1216 UTC 22 March 2019)
found at http://www.aviationweather.gov/metar/data/
 
Forecast for: PTRO (BABELTHUAP/KOROR, FM)
Text: PTRO 221120Z 2212/2312 04008KT P6SM VCSH SCT016 BKN120
Forecast period: 1200 UTC 22 March 2019 to 1200 UTC 23 March 2019
Forecast type: FROM: standard forecast or significant change
Winds: from the NE (40 degrees) at 9 MPH (8 knots; 4.1 m/s)
Visibility: 6 or more miles 10+ km)
Ceiling: 12000 feet AGL
Clouds: scattered clouds at 1600 feet AGL
broken clouds at 12000 feet AGL
Weather: VCSH  (showers in vicinity)